Time;durP1;ratioP1;P1;durP2;ratioP2;P2;SDS_P1;SDS_P2;PMS_P1;PMS_P2;Temp;Humidity;BMP_temperature;BMP_pressure;BME280_temperature;BME280_humidity;BME280_pressure;Samples;Min_cycle;Max_cycle;Signal;HPM_P1;HPM_P2
2024/01/25 00:01:09;;;;;;;19.90;12.30;;;5.90;85.60;;;5.79;53.80;95506.78;5069382;28;20536;-60
2024/01/25 00:03:37;;;;;;;19.03;9.97;;;5.90;85.70;;;5.81;53.77;95491.88;5069695;28;20454;-61
2024/01/25 00:06:05;;;;;;;18.47;9.10;;;5.90;85.40;;;5.84;53.42;95488.22;5069317;28;21045;-59
2024/01/25 00:08:32;;;;;;;9.83;5.97;;;6.00;85.20;;;5.86;53.57;95470.72;5069453;28;20558;-61
2024/01/25 00:11:00;;;;;;;7.90;5.87;;;6.00;85.90;;;5.90;53.20;95456.50;5070173;28;20479;-60
2024/01/25 00:13:29;;;;;;;13.73;5.27;;;6.00;84.40;;;5.94;52.76;95447.56;5070555;28;20504;-60
2024/01/25 00:15:56;;;;;;;15.93;5.50;;;6.00;83.90;;;5.99;52.60;95418.59;5069427;28;20466;-60
2024/01/25 00:18:23;;;;;;;6.93;3.83;;;6.10;83.70;;;6.02;52.21;95408.78;5068858;28;20451;-59
2024/01/25 00:20:51;;;;;;;8.20;4.73;;;6.10;83.40;;;6.06;51.79;95397.19;5068424;28;20889;-60
2024/01/25 00:23:19;;;;;;;7.60;5.03;;;6.20;83.40;;;6.09;52.38;95399.63;5069441;28;20486;-61
2024/01/25 00:25:46;;;;;;;8.13;5.13;;;6.20;83.00;;;6.13;52.41;95396.81;5069157;28;20495;-61
2024/01/25 00:28:13;;;;;;;10.90;5.93;;;6.20;82.90;;;6.12;51.71;95408.19;5069368;28;20447;-60
2024/01/25 00:30:42;;;;;;;8.43;4.80;;;6.20;82.50;;;6.14;52.49;95406.31;5069169;28;21075;-60
2024/01/25 00:33:09;;;;;;;8.63;5.40;;;6.20;82.70;;;6.16;52.20;95418.31;5068959;28;20447;-60
2024/01/25 00:35:37;;;;;;;5.50;4.60;;;6.20;82.70;;;6.18;52.43;95413.00;5068990;28;20462;-61
2024/01/25 00:38:06;;;;;;;10.10;4.20;;;6.30;82.80;;;6.19;52.60;95418.13;5068992;28;20478;-60
2024/01/25 00:40:34;;;;;;;8.00;4.97;;;6.30;82.80;;;6.20;52.02;95426.81;5068769;28;20463;-60
2024/01/25 00:43:02;;;;;;;6.40;4.60;;;6.30;82.80;;;6.22;52.62;95423.16;5069124;28;20964;-61
2024/01/25 00:45:30;;;;;;;7.57;4.47;;;6.30;83.10;;;6.24;52.40;95423.06;5069048;28;20491;-61
2024/01/25 00:48:00;;;;;;;11.83;4.40;;;6.30;83.10;;;6.26;52.22;95408.97;5069100;28;20986;-60
2024/01/25 00:50:28;;;;;;;5.77;4.30;;;6.40;83.60;;;6.27;52.73;95407.19;5068748;28;20467;-61
2024/01/25 00:52:56;;;;;;;9.93;5.00;;;6.40;83.70;;;6.28;52.59;95399.25;5068521;28;20458;-59
2024/01/25 00:55:24;;;;;;;10.63;4.30;;;6.40;83.60;;;6.31;52.56;95413.88;5068573;28;20482;-60
2024/01/25 00:57:52;;;;;;;7.33;4.07;;;6.40;83.30;;;6.32;52.59;95405.13;5068595;28;20459;-60
2024/01/25 01:00:22;;;;;;;4.60;3.60;;;6.40;83.20;;;6.32;52.09;95423.41;5068953;28;20851;-61
2024/01/25 01:02:50;;;;;;;7.03;4.10;;;6.50;83.00;;;6.35;52.54;95428.44;5068672;28;20455;-60
2024/01/25 01:05:19;;;;;;;6.70;4.30;;;6.40;83.10;;;6.37;51.97;95425.72;5068669;28;20948;-61
2024/01/25 01:07:48;;;;;;;6.70;4.20;;;6.50;83.20;;;6.36;52.68;95417.03;5068955;28;20443;-61
2024/01/25 01:10:15;;;;;;;5.67;4.57;;;6.50;83.60;;;6.37;52.49;95413.50;5068958;28;20462;-60
2024/01/25 01:12:42;;;;;;;9.83;4.47;;;6.50;83.40;;;6.37;52.53;95413.50;5068354;28;20451;-60
2024/01/25 01:15:10;;;;;;;6.10;3.63;;;6.50;83.80;;;6.39;52.87;95398.53;5068682;28;20458;-61
2024/01/25 01:17:37;;;;;;;4.40;3.53;;;6.50;83.90;;;6.38;53.10;95373.38;5068579;28;20465;-61
2024/01/25 01:20:06;;;;;;;3.87;3.33;;;6.50;83.80;;;6.41;52.80;95365.34;5069813;28;20469;-60
2024/01/25 01:22:35;;;;;;;5.73;4.57;;;6.50;83.90;;;6.42;52.49;95356.53;5068752;28;20451;-61
2024/01/25 01:25:02;;;;;;;6.10;3.40;;;6.50;83.80;;;6.44;52.46;95340.75;5068626;28;20495;-59
2024/01/25 01:27:29;;;;;;;5.23;3.20;;;6.50;83.80;;;6.45;52.94;95352.88;5068613;28;20447;-60
2024/01/25 01:29:56;;;;;;;8.70;2.67;;;6.50;83.80;;;6.46;52.86;95354.56;5068324;28;20458;-60
2024/01/25 01:32:24;;;;;;;2.10;1.90;;;6.60;83.70;;;6.50;52.60;95352.59;5069027;28;20461;-60
2024/01/25 01:34:52;;;;;;;3.00;2.37;;;6.60;83.70;;;6.53;52.88;95355.81;5071972;28;20447;-59
2024/01/25 01:37:19;;;;;;;2.27;2.07;;;6.60;83.50;;;6.55;52.79;95350.47;5071938;28;20570;-60
2024/01/25 01:39:48;;;;;;;2.23;2.13;;;6.70;83.60;;;6.57;52.51;95343.41;5071800;28;20451;-59
2024/01/25 01:42:15;;;;;;;2.10;1.60;;;6.60;83.40;;;6.58;52.23;95340.69;5072060;28;20513;-60
2024/01/25 01:44:42;;;;;;;2.33;2.13;;;6.70;83.40;;;6.61;52.44;95326.56;5071647;28;20605;-60
2024/01/25 01:47:09;;;;;;;4.03;2.00;;;6.70;83.40;;;6.64;52.21;95321.13;5071943;28;20569;-60
2024/01/25 01:49:37;;;;;;;3.20;2.90;;;6.70;83.40;;;6.68;52.46;95329.56;5072179;28;20450;-60
2024/01/25 01:52:05;;;;;;;2.33;2.13;;;6.70;83.50;;;6.69;52.54;95326.03;5072282;28;20474;-59
2024/01/25 01:54:32;;;;;;;3.93;2.60;;;6.80;83.40;;;6.71;51.98;95324.13;5072361;28;20538;-60
2024/01/25 01:57:02;;;;;;;5.43;2.40;;;6.80;83.50;;;6.71;52.55;95316.28;5072802;28;20807;-61
2024/01/25 01:59:29;;;;;;;2.90;2.30;;;6.80;83.50;;;6.72;52.77;95305.72;5072213;28;20458;-62
2024/01/25 02:01:56;;;;;;;3.80;2.60;;;6.80;83.50;;;6.72;52.79;95299.69;5072165;28;20477;-62
2024/01/25 02:04:24;;;;;;;2.40;2.20;;;6.80;83.60;;;6.71;52.59;95298.84;5071751;28;20462;-61
2024/01/25 02:06:51;;;;;;;2.83;2.60;;;6.80;83.80;;;6.71;52.95;95306.69;5072173;28;20466;-61
2024/01/25 02:09:19;;;;;;;4.53;3.20;;;6.80;84.00;;;6.70;52.88;95307.63;5072339;28;20457;-61
2024/01/25 02:11:46;;;;;;;4.20;3.17;;;6.80;84.40;;;6.67;52.47;95305.22;5071880;28;20466;-62
2024/01/25 02:14:15;;;;;;;6.93;2.40;;;6.80;84.30;;;6.67;53.10;95318.28;5072176;28;20663;-61
2024/01/25 02:16:45;;;;;;;4.80;3.00;;;6.80;84.50;;;6.67;52.23;95327.91;5072018;28;20471;-61
2024/01/25 02:19:13;;;;;;;3.60;2.97;;;6.70;83.90;;;6.63;52.18;95332.50;5072057;28;20955;-60
2024/01/25 02:21:40;;;;;;;2.43;2.23;;;6.70;83.50;;;6.59;52.31;95333.66;5072426;28;20467;-61
2024/01/25 02:24:09;;;;;;;6.33;3.90;;;6.70;83.70;;;6.55;52.57;95322.59;5072323;28;20472;-60
2024/01/25 02:26:37;;;;;;;3.73;2.73;;;6.60;83.80;;;6.52;53.21;95332.41;5071949;28;20501;-61
2024/01/25 02:29:05;;;;;;;4.80;3.63;;;6.60;84.30;;;6.44;52.72;95325.06;5072113;28;20451;-61
2024/01/25 02:31:33;;;;;;;2.93;2.70;;;6.60;84.30;;;6.40;53.28;95324.47;5071669;28;20593;-61
2024/01/25 02:34:00;;;;;;;3.73;2.80;;;6.50;84.50;;;6.39;53.31;95332.41;5071566;28;20447;-61
2024/01/25 02:36:28;;;;;;;3.17;2.87;;;6.50;84.60;;;6.37;52.84;95323.84;5071398;28;20994;-61
2024/01/25 02:38:55;;;;;;;3.40;3.10;;;6.50;85.00;;;6.33;52.98;95317.97;5071782;28;20872;-61
2024/01/25 02:41:24;;;;;;;6.77;3.07;;;6.40;85.30;;;6.32;53.08;95325.91;5071836;28;20563;-61
2024/01/25 02:43:51;;;;;;;5.00;2.87;;;6.40;85.00;;;6.28;53.07;95307.00;5070430;28;20512;-60
2024/01/25 02:46:19;;;;;;;4.27;3.10;;;6.40;85.60;;;6.26;53.22;95303.66;5071005;28;20495;-61
2024/01/25 02:48:46;;;;;;;3.10;2.90;;;6.40;85.60;;;6.24;53.37;95297.69;5071390;28;20474;-61
2024/01/25 02:51:14;;;;;;;5.90;3.30;;;6.40;85.60;;;6.25;54.05;95289.75;5070739;28;20987;-62
2024/01/25 02:53:42;;;;;;;7.67;3.23;;;6.40;85.70;;;6.27;53.62;95294.84;5071512;28;20462;-61
2024/01/25 02:56:09;;;;;;;5.67;3.30;;;6.40;85.70;;;6.28;53.53;95284.31;5070959;28;20489;-60
2024/01/25 02:58:38;;;;;;;6.17;3.93;;;6.40;86.40;;;6.30;53.67;95276.38;5070806;28;20454;-60
2024/01/25 03:01:05;;;;;;;8.50;4.10;;;6.40;86.30;;;6.36;54.52;95288.19;5070704;28;20477;-61
2024/01/25 03:03:33;;;;;;;2.93;2.33;;;6.40;87.70;;;6.43;55.26;95286.84;5070955;28;20990;-60
2024/01/25 03:06:00;;;;;;;2.83;2.33;;;6.50;89.10;;;6.55;55.10;95277.31;5070978;28;20573;-60
2024/01/25 03:08:28;;;;;;;1.70;1.60;;;6.60;88.80;;;6.67;54.71;95278.25;5070501;28;20533;-62
2024/01/25 03:10:56;;;;;;;2.33;1.77;;;6.70;89.70;;;6.78;56.29;95267.88;5070870;28;20478;-61
2024/01/25 03:13:24;;;;;;;2.93;2.00;;;6.80;90.70;;;6.90;55.12;95268.81;5070727;28;20459;-61
2024/01/25 03:15:52;;;;;;;3.83;1.43;;;6.90;90.20;;;7.01;54.56;95281.97;5070811;28;20994;-61
2024/01/25 03:18:20;;;;;;;6.10;1.70;;;7.00;90.10;;;7.11;54.92;95272.53;5070740;28;20977;-60
2024/01/25 03:20:50;;;;;;;2.57;1.47;;;7.10;90.20;;;7.22;54.93;95273.53;5070459;28;20474;-60
2024/01/25 03:23:18;;;;;;;4.20;1.97;;;7.20;90.30;;;7.30;54.48;95268.63;5071215;28;20431;-61
2024/01/25 03:25:45;;;;;;;2.27;1.70;;;7.30;90.20;;;7.39;54.52;95273.19;5070819;28;20556;-61
2024/01/25 03:28:16;;;;;;;6.70;2.40;;;7.40;90.20;;;7.45;54.75;95275.38;5070625;28;20458;-61
2024/01/25 03:30:44;;;;;;;2.97;2.43;;;7.50;90.30;;;7.48;54.97;95269.91;5070704;28;20954;-61
2024/01/25 03:33:13;;;;;;;5.63;2.23;;;7.50;90.30;;;7.53;54.77;95282.66;5071275;28;20470;-61
2024/01/25 03:35:40;;;;;;;1.83;1.50;;;7.60;90.00;;;7.57;54.83;95267.56;5066373;28;20510;-59
2024/01/25 03:38:08;;;;;;;2.57;2.30;;;7.70;90.10;;;7.62;54.42;95247.09;5070227;28;20990;-60
2024/01/25 03:40:35;;;;;;;2.00;1.70;;;7.70;89.90;;;7.67;54.61;95247.63;5070645;28;20810;-62
2024/01/25 03:43:02;;;;;;;3.47;1.60;;;7.70;90.00;;;7.71;54.13;95251.66;5070292;28;20987;-61
2024/01/25 03:45:30;;;;;;;1.30;1.20;;;7.80;90.00;;;7.75;54.23;95266.22;5070291;28;20491;-61
2024/01/25 03:47:57;;;;;;;6.20;1.60;;;7.80;89.50;;;7.77;54.24;95269.53;5070413;28;20449;-60
2024/01/25 03:50:27;;;;;;;4.80;1.80;;;7.80;89.40;;;7.80;53.92;95264.09;5069809;28;20463;-61
2024/01/25 03:52:54;;;;;;;6.17;2.30;;;7.90;89.20;;;7.82;53.67;95250.88;5062406;28;20459;-60
2024/01/25 03:55:22;;;;;;;4.70;2.70;;;7.90;88.70;;;7.83;53.90;95231.59;5069776;28;20512;-61
2024/01/25 03:57:49;;;;;;;2.67;2.13;;;7.90;88.60;;;7.84;53.65;95231.50;5070107;28;20458;-61
2024/01/25 04:00:18;;;;;;;5.03;2.20;;;7.90;88.40;;;7.86;53.82;95237.44;5069882;28;20475;-60
2024/01/25 04:02:45;;;;;;;4.13;1.90;;;7.90;88.20;;;7.84;53.49;95231.50;5069745;28;20502;-61
2024/01/25 04:05:12;;;;;;;2.40;2.00;;;7.90;87.80;;;7.86;53.75;95234.00;5069452;28;20668;-59
2024/01/25 04:07:41;;;;;;;4.13;2.23;;;7.90;87.10;;;7.86;53.18;95237.44;5069321;28;20447;-60
2024/01/25 04:10:09;;;;;;;3.63;1.73;;;7.90;87.10;;;7.87;53.18;95230.44;5069458;28;20528;-60
2024/01/25 04:12:36;;;;;;;1.97;1.80;;;7.90;87.10;;;7.85;53.10;95240.19;5065981;28;20458;-60
2024/01/25 04:15:04;;;;;;;5.23;3.10;;;7.90;87.00;;;7.82;52.96;95245.63;5061546;28;20452;-61
2024/01/25 04:17:31;;;;;;;6.20;2.60;;;7.90;87.10;;;7.80;52.99;95247.53;5069374;28;20795;-60
2024/01/25 04:19:59;;;;;;;3.97;2.53;;;7.90;87.10;;;7.74;53.06;95243.59;5065124;28;20454;-60
2024/01/25 04:22:26;;;;;;;3.30;2.40;;;7.80;87.00;;;7.71;53.61;95236.81;5069225;28;20469;-61
2024/01/25 04:24:55;;;;;;;6.77;3.10;;;7.80;87.00;;;7.67;53.35;95232.75;5067040;28;20447;-61
2024/01/25 04:27:22;;;;;;;2.73;2.30;;;7.70;86.90;;;7.63;53.36;95233.09;5069407;28;20552;-60
2024/01/25 04:29:50;;;;;;;2.97;2.10;;;7.70;87.40;;;7.59;53.42;95236.88;5069534;28;20447;-61
2024/01/25 04:32:17;;;;;;;3.07;2.17;;;7.70;87.90;;;7.55;54.02;95246.72;5069354;28;20551;-63
2024/01/25 04:34:47;;;;;;;5.37;3.30;;;7.60;87.90;;;7.51;53.75;95256.59;5069515;28;20778;-61
2024/01/25 04:37:14;;;;;;;5.83;3.30;;;7.60;88.00;;;7.47;54.09;95257.75;5068623;28;20509;-60
2024/01/25 04:39:42;;;;;;;5.20;2.50;;;7.60;88.30;;;7.42;54.32;95270.34;5069258;28;20512;-61
2024/01/25 04:42:11;;;;;;;5.27;2.70;;;7.50;87.90;;;7.39;53.79;95277.56;5069208;28;20479;-60
2024/01/25 04:44:38;;;;;;;4.13;2.40;;;7.50;88.00;;;7.33;53.73;95282.31;5065151;28;20451;-60
2024/01/25 04:47:06;;;;;;;5.37;2.20;;;7.40;88.10;;;7.27;54.05;95271.44;5069326;28;20526;-61
2024/01/25 04:49:33;;;;;;;4.50;2.30;;;7.40;88.50;;;7.23;54.41;95285.69;5069926;28;20563;-59
2024/01/25 04:52:01;;;;;;;2.80;2.33;;;7.30;88.30;;;7.18;54.25;95292.06;5069241;28;20482;-61
2024/01/25 04:54:28;;;;;;;3.40;2.33;;;7.30;88.80;;;7.14;54.27;95292.38;5069540;28;20451;-60
2024/01/25 04:56:56;;;;;;;3.00;2.30;;;7.20;88.80;;;7.11;54.11;95293.47;5070356;28;20470;-61
2024/01/25 04:59:25;;;;;;;2.53;2.33;;;7.20;88.90;;;7.08;54.46;95282.38;5072297;28;20514;-61
2024/01/25 05:01:55;;;;;;;3.43;3.10;;;7.10;89.30;;;7.01;55.18;95292.44;5070488;28;20475;-61
2024/01/25 05:04:22;;;;;;;4.60;2.40;;;7.10;89.50;;;6.98;55.53;95287.41;5064818;28;20583;-61
2024/01/25 05:06:50;;;;;;;3.00;2.47;;;7.10;90.30;;;6.95;54.53;95295.47;5065237;28;20491;-61
2024/01/25 05:09:17;;;;;;;6.13;2.87;;;7.00;90.00;;;6.94;55.25;95293.78;5069122;28;20454;-59
2024/01/25 05:11:45;;;;;;;7.90;2.47;;;7.00;90.20;;;6.95;55.54;95305.94;5069283;28;20471;-61
2024/01/25 05:14:13;;;;;;;7.53;3.27;;;7.00;90.40;;;6.94;55.21;95317.31;5073066;28;20806;-61
2024/01/25 05:16:42;;;;;;;3.90;3.20;;;7.00;90.40;;;6.93;55.39;95300.81;5069024;28;20473;-62
2024/01/25 05:19:09;;;;;;;9.03;5.03;;;7.00;90.50;;;6.91;55.04;95312.31;5069270;28;20530;-58
2024/01/25 05:21:37;;;;;;;15.47;6.83;;;7.00;90.50;;;6.93;55.47;95326.97;5068825;28;20466;-60
2024/01/25 05:24:06;;;;;;;15.50;6.63;;;7.00;90.60;;;6.93;55.40;95331.38;5069987;28;20453;-60
2024/01/25 05:26:33;;;;;;;8.10;3.90;;;7.00;90.40;;;6.95;55.04;95321.63;5065142;28;20514;-60
2024/01/25 05:29:01;;;;;;;14.67;2.50;;;7.00;90.60;;;6.96;55.53;95325.91;5072883;28;20461;-59
2024/01/25 05:31:28;;;;;;;2.27;2.07;;;7.00;90.60;;;6.96;55.73;95333.75;5067566;28;20470;-59
2024/01/25 05:33:57;;;;;;;2.20;1.83;;;7.00;90.50;;;6.97;54.99;95322.34;5067682;28;20447;-60
2024/01/25 05:36:25;;;;;;;2.43;1.87;;;7.10;90.60;;;6.98;54.91;95330.09;5068848;28;20835;-60
2024/01/25 05:38:52;;;;;;;4.90;2.63;;;7.00;90.40;;;7.02;54.99;95328.09;5068321;28;20443;-60
2024/01/25 05:41:20;;;;;;;3.33;2.53;;;7.10;90.30;;;7.05;55.22;95335.75;5068730;28;20800;-60
2024/01/25 05:43:47;;;;;;;3.43;2.47;;;7.10;90.30;;;7.08;54.90;95342.53;5068231;28;20450;-59
2024/01/25 05:46:15;;;;;;;2.60;2.03;;;7.10;90.30;;;7.09;54.95;95341.59;5067668;28;20501;-61
2024/01/25 05:48:43;;;;;;;3.43;2.30;;;7.10;90.30;;;7.07;54.90;95336.47;5068014;28;20469;-60
2024/01/25 05:51:13;;;;;;;5.80;2.17;;;7.10;90.20;;;7.05;54.87;95350.56;5067929;28;20475;-59
2024/01/25 05:53:41;;;;;;;7.47;2.00;;;7.20;90.30;;;7.08;54.68;95366.91;5071956;28;20461;-59
2024/01/25 05:56:08;;;;;;;3.33;1.90;;;7.20;90.30;;;7.10;54.63;95365.03;5071983;28;20474;-60
2024/01/25 05:58:36;;;;;;;2.83;2.30;;;7.20;90.20;;;7.13;55.04;95369.22;5071983;28;20454;-60
2024/01/25 06:01:04;;;;;;;2.40;2.00;;;7.20;90.30;;;7.13;55.04;95383.13;5071689;28;20587;-61
2024/01/25 06:03:31;;;;;;;3.13;2.20;;;7.20;90.40;;;7.14;55.41;95376.09;5071519;28;20458;-62
2024/01/25 06:05:59;;;;;;;2.30;2.10;;;7.20;90.40;;;7.14;54.93;95370.88;5071840;28;20490;-59
2024/01/25 06:08:27;;;;;;;2.77;2.57;;;7.20;90.40;;;7.13;55.38;95372.66;5071292;28;20576;-60
2024/01/25 06:10:55;;;;;;;3.10;2.33;;;7.20;90.40;;;7.13;54.87;95370.03;5071371;28;20470;-62
2024/01/25 06:13:22;;;;;;;3.43;2.67;;;7.20;90.30;;;7.16;55.09;95367.22;5071356;28;21012;-59
2024/01/25 06:15:50;;;;;;;4.23;2.00;;;7.20;90.30;;;7.16;55.47;95369.81;5071042;28;20471;-59
2024/01/25 06:18:17;;;;;;;3.27;2.20;;;7.20;90.40;;;7.19;55.18;95371.41;5070921;28;20453;-60
2024/01/25 06:20:45;;;;;;;2.43;2.13;;;7.20;90.30;;;7.18;55.08;95370.53;5066674;28;20477;-60
2024/01/25 06:23:12;;;;;;;7.07;2.40;;;7.30;90.30;;;7.20;54.95;95380.06;5067512;28;20446;-60
2024/01/25 06:25:41;;;;;;;2.57;2.07;;;7.20;90.40;;;7.20;55.08;95382.69;5067374;28;20979;-59
2024/01/25 06:28:09;;;;;;;4.80;2.20;;;7.30;90.40;;;7.20;54.68;95385.31;5071185;28;20491;-60
2024/01/25 06:30:36;;;;;;;6.03;3.07;;;7.30;90.20;;;7.20;55.03;95380.06;5071469;28;20894;-59
2024/01/25 06:33:04;;;;;;;2.70;2.40;;;7.30;90.20;;;7.21;54.69;95390.44;5066093;28;20556;-59
2024/01/25 06:35:31;;;;;;;5.00;2.60;;;7.30;90.40;;;7.22;55.39;95388.66;5067655;28;20489;-59
2024/01/25 06:37:59;;;;;;;4.70;2.27;;;7.30;90.50;;;7.24;55.16;95389.41;5067612;28;20539;-60
2024/01/25 06:40:26;;;;;;;3.30;1.90;;;7.30;90.40;;;7.27;54.92;95386.56;5067584;28;20637;-60
2024/01/25 06:42:55;;;;;;;5.93;2.40;;;7.30;90.50;;;7.30;55.37;95395.03;5067031;28;20818;-59
2024/01/25 06:45:22;;;;;;;5.17;3.20;;;7.40;90.60;;;7.34;55.29;95391.25;5066721;28;20494;-59
2024/01/25 06:47:49;;;;;;;2.93;2.63;;;7.40;91.10;;;7.38;55.42;95391.88;5066645;28;20526;-60
2024/01/25 06:50:17;;;;;;;5.07;2.90;;;7.40;90.70;;;7.41;54.94;95396.91;5066702;28;20475;-59
2024/01/25 06:52:44;;;;;;;3.77;3.03;;;7.50;90.70;;;7.46;54.72;95386.94;5066432;28;20565;-59
2024/01/25 06:55:12;;;;;;;7.20;2.60;;;7.50;90.50;;;7.49;55.47;95386.72;5070835;28;20450;-61
2024/01/25 06:57:40;;;;;;;6.33;3.10;;;7.50;90.70;;;7.54;55.20;95391.63;5066936;28;20450;-60
2024/01/25 07:00:12;;;;;;;7.03;3.27;;;7.60;90.70;;;7.58;55.23;95400.94;5070506;28;20482;-60
2024/01/25 07:02:40;;;;;;;3.57;2.50;;;7.60;90.60;;;7.61;55.05;95392.88;5066147;28;20453;-60
2024/01/25 07:05:08;;;;;;;4.90;2.70;;;7.70;90.40;;;7.66;55.27;95396.00;5070565;28;20442;-59
2024/01/25 07:07:35;;;;;;;7.83;2.73;;;7.70;90.60;;;7.72;54.85;95413.88;5070289;28;20483;-60
2024/01/25 07:10:03;;;;;;;6.50;2.70;;;7.70;90.40;;;7.77;54.52;95408.31;5070266;28;20963;-59
2024/01/25 07:12:30;;;;;;;14.57;3.40;;;7.80;90.30;;;7.85;56.45;95407.78;5070242;28;20456;-60
2024/01/25 07:14:58;;;;;;;3.73;2.43;;;7.90;92.00;;;7.93;54.67;95394.13;5069621;28;20865;-59
2024/01/25 07:17:27;;;;;;;4.63;2.20;;;7.90;90.70;;;8.08;54.57;95388.59;5070078;28;20451;-59
2024/01/25 07:19:54;;;;;;;10.63;4.93;;;8.10;90.70;;;8.21;54.62;95392.94;5070158;28;20469;-59
2024/01/25 07:22:22;;;;;;;15.37;8.27;;;8.20;90.40;;;8.28;54.32;95396.81;5069567;28;20467;-61
2024/01/25 07:24:49;;;;;;;19.27;7.90;;;8.30;90.50;;;8.31;53.81;95382.66;5069915;28;20451;-60
2024/01/25 07:27:17;;;;;;;20.00;9.80;;;8.30;89.60;;;8.31;54.14;95370.38;5069750;28;20515;-60
2024/01/25 07:29:45;;;;;;;16.70;7.50;;;8.40;89.60;;;8.30;53.71;95371.31;5069754;28;20462;-59
2024/01/25 07:32:13;;;;;;;13.20;7.13;;;8.30;88.90;;;8.30;53.37;95381.78;5069371;28;20839;-60
2024/01/25 07:34:42;;;;;;;18.77;6.70;;;8.30;88.60;;;8.30;53.63;95375.72;5069147;28;20577;-60
2024/01/25 07:37:11;;;;;;;12.43;4.77;;;8.30;88.60;;;8.31;53.99;95366.94;5069421;28;20967;-59
2024/01/25 07:39:38;;;;;;;11.80;5.83;;;8.30;88.80;;;8.31;53.45;95356.44;5069869;28;20509;-61
2024/01/25 07:42:06;;;;;;;10.57;2.60;;;8.40;88.50;;;8.30;53.21;95355.59;5069923;28;20540;-59
2024/01/25 07:44:33;;;;;;;2.53;2.30;;;8.30;88.00;;;8.29;53.04;95361.81;5069458;28;20500;-59
2024/01/25 07:47:00;;;;;;;6.30;2.93;;;8.30;87.90;;;8.31;53.47;95351.22;5069913;28;20494;-60
2024/01/25 07:49:27;;;;;;;3.67;2.27;;;8.40;88.10;;;8.31;53.44;95369.56;5070174;28;20451;-60
2024/01/25 07:51:56;;;;;;;7.57;2.30;;;8.30;87.50;;;8.36;53.50;95364.78;5069498;28;20475;-58
2024/01/25 07:54:24;;;;;;;6.23;2.40;;;8.40;88.20;;;8.49;53.35;95365.59;5069329;28;21024;-59
2024/01/25 07:56:51;;;;;;;3.07;2.20;;;8.50;87.70;;;8.78;52.95;95373.03;5069423;28;20470;-60
2024/01/25 07:59:18;;;;;;;6.23;2.00;;;8.70;87.90;;;9.27;52.72;95369.25;5069304;28;20537;-60
2024/01/25 08:01:45;;;;;;;7.50;2.97;;;9.10;88.60;;;9.66;51.89;95377.59;5069039;28;20466;-59
2024/01/25 08:04:13;;;;;;;5.60;3.17;;;9.50;87.20;;;9.84;51.27;95374.47;5067858;28;20950;-60
2024/01/25 08:06:40;;;;;;;8.80;2.83;;;9.70;85.50;;;9.87;50.29;95380.31;5069107;28;20490;-59
2024/01/25 08:09:09;;;;;;;3.70;2.83;;;9.80;83.80;;;9.86;50.76;95373.38;5069397;28;20484;-60
2024/01/25 08:11:36;;;;;;;6.70;2.60;;;9.90;84.10;;;9.85;51.09;95386.63;5065785;28;20585;-60
2024/01/25 08:14:05;;;;;;;3.43;2.50;;;9.80;84.00;;;9.81;50.77;95387.84;5069508;28;20460;-59
2024/01/25 08:16:32;;;;;;;8.50;3.87;;;9.80;83.40;;;9.77;50.84;95395.13;5069442;28;20478;-60
2024/01/25 08:18:59;;;;;;;5.37;2.50;;;9.80;82.80;;;9.73;50.70;95404.22;5069229;28;20532;-59
2024/01/25 08:21:27;;;;;;;9.43;3.37;;;9.80;82.80;;;9.68;50.70;95401.97;5069012;28;20967;-60
2024/01/25 08:23:54;;;;;;;11.93;4.10;;;9.70;82.80;;;9.69;50.90;95398.34;5069029;28;20539;-59
2024/01/25 08:26:23;;;;;;;3.13;2.30;;;9.70;82.70;;;9.67;50.56;95395.03;5065377;28;20521;-60
2024/01/25 08:28:50;;;;;;;6.80;3.50;;;9.70;82.70;;;9.69;51.07;95397.53;5069338;28;20538;-60
2024/01/25 08:31:18;;;;;;;10.30;3.17;;;9.70;83.30;;;9.72;50.50;95393.84;5068844;28;20467;-59
2024/01/25 08:33:47;;;;;;;5.00;2.60;;;9.70;82.60;;;9.74;50.58;95397.16;5065214;28;20836;-58
2024/01/25 08:36:14;;;;;;;9.47;3.77;;;9.70;82.70;;;9.74;50.71;95386.66;5065391;28;20482;-59
2024/01/25 08:38:42;;;;;;;6.80;3.43;;;9.80;82.50;;;9.77;50.12;95389.88;5069061;28;21170;-61
2024/01/25 08:41:10;;;;;;;9.57;3.80;;;9.80;81.60;;;9.81;50.13;95393.94;5068894;28;20474;-59
2024/01/25 08:43:40;;;;;;;10.83;3.80;;;9.80;81.30;;;9.81;49.54;95400.97;5068346;28;20553;-59
2024/01/25 08:46:08;;;;;;;9.83;3.40;;;9.80;80.50;;;9.80;49.88;95412.44;5073107;28;20474;-59
2024/01/25 08:48:35;;;;;;;5.37;3.73;;;9.80;80.50;;;9.78;49.70;95406.47;5073007;28;20975;-60
2024/01/25 08:51:03;;;;;;;9.10;5.17;;;9.70;80.40;;;9.77;49.64;95410.06;5073464;28;20470;-59
2024/01/25 08:53:30;;;;;;;8.63;3.73;;;9.70;80.20;;;9.77;49.66;95416.13;5072793;28;20459;-59
2024/01/25 08:55:58;;;;;;;9.40;4.60;;;9.70;80.20;;;9.78;49.57;95425.69;5073194;28;20471;-60
2024/01/25 08:58:25;;;;;;;7.10;4.00;;;9.80;80.10;;;9.81;49.30;95419.38;5072894;28;20997;-60
2024/01/25 09:00:54;;;;;;;8.03;4.20;;;9.80;79.70;;;9.85;49.14;95410.28;5072829;28;20474;-59
2024/01/25 09:03:22;;;;;;;8.57;3.87;;;9.80;79.60;;;9.81;49.18;95416.75;5072081;28;20450;-60
2024/01/25 09:05:50;;;;;;;9.60;4.33;;;9.80;78.70;;;9.78;49.39;95415.19;5072462;28;20467;-59
2024/01/25 09:08:17;;;;;;;10.17;4.27;;;9.80;79.40;;;9.76;49.62;95414.50;5072616;28;20482;-60
2024/01/25 09:10:44;;;;;;;7.70;4.50;;;9.80;79.60;;;9.73;49.83;95406.84;5072216;28;20859;-60
2024/01/25 09:13:12;;;;;;;7.33;4.77;;;9.70;80.30;;;9.71;49.82;95400.03;5072593;28;20541;-59
2024/01/25 09:15:39;;;;;;;5.47;3.33;;;9.70;79.60;;;9.67;50.02;95400.28;5072349;28;20478;-60
2024/01/25 09:18:08;;;;;;;6.77;3.60;;;9.70;80.30;;;9.65;50.15;95399.56;5072293;28;20478;-60
2024/01/25 09:20:35;;;;;;;6.87;3.63;;;9.70;80.40;;;9.67;49.92;95399.44;5072078;28;20470;-62
2024/01/25 09:23:03;;;;;;;14.00;4.13;;;9.70;80.20;;;9.66;49.92;95409.09;5072071;28;20450;-60
2024/01/25 09:25:31;;;;;;;6.97;3.90;;;9.70;79.90;;;9.63;49.73;95398.00;5072158;28;20478;-60
2024/01/25 09:27:58;;;;;;;15.23;3.60;;;9.60;79.50;;;9.58;49.76;95401.00;5072073;28;20497;-60
2024/01/25 09:30:26;;;;;;;7.80;3.80;;;9.60;79.90;;;9.58;50.08;95394.94;5072346;28;20529;-59
2024/01/25 09:32:54;;;;;;;12.83;2.87;;;9.60;80.20;;;9.73;50.12;95398.13;5070921;28;20574;-61
2024/01/25 09:35:22;;;;;;;9.87;3.00;;;9.70;80.60;;;10.03;50.26;95393.03;5071921;28;20573;-60
2024/01/25 09:37:52;;;;;;;11.70;2.73;;;9.90;81.40;;;10.23;49.83;95391.44;5072034;28;20872;-59
2024/01/25 09:40:20;;;;;;;15.57;2.70;;;10.10;79.70;;;10.36;49.51;95386.06;5071947;28;20482;-58
2024/01/25 09:42:49;;;;;;;8.60;3.23;;;10.30;79.30;;;10.39;49.27;95379.69;5071724;28;20474;-60
2024/01/25 09:45:18;;;;;;;8.10;2.60;;;10.30;78.40;;;10.39;48.86;95379.69;5071561;28;20451;-59
2024/01/25 09:47:45;;;;;;;7.93;2.70;;;10.40;77.50;;;10.35;49.08;95373.84;5071335;28;20494;-61
2024/01/25 09:50:13;;;;;;;5.97;2.70;;;10.30;77.50;;;10.33;48.18;95364.41;5071847;28;20451;-60
2024/01/25 09:52:42;;;;;;;8.60;3.40;;;10.30;76.20;;;10.26;48.03;95350.91;5071892;28;20484;-60
2024/01/25 09:55:10;;;;;;;8.80;3.43;;;10.30;75.80;;;10.18;49.06;95350.72;5071822;28;20758;-60
2024/01/25 09:57:37;;;;;;;7.40;4.03;;;10.20;77.00;;;10.12;48.52;95352.03;5072057;28;20519;-60
2024/01/25 10:00:11;;;;;;;17.20;5.93;;;10.10;75.70;;;10.03;49.06;95348.34;5071510;28;20490;-60
2024/01/25 10:02:39;;;;;;;12.10;5.43;;;10.00;76.90;;;9.98;49.65;95339.19;5070705;28;20512;-61
2024/01/25 10:05:07;;;;;;;15.97;6.47;;;10.00;78.00;;;10.00;50.03;95330.22;5071523;28;20455;-60
2024/01/25 10:07:41;;;;;;;13.87;6.20;;;10.00;78.90;;;10.01;49.87;95331.91;5071502;28;20501;-60
2024/01/25 10:10:09;;;;;;;10.47;4.57;;;10.00;78.80;;;10.04;48.80;95317.69;5071720;28;20483;-60
2024/01/25 10:12:37;;;;;;;20.00;5.23;;;10.00;76.90;;;10.07;49.52;95316.56;5071688;28;20477;-60
2024/01/25 10:15:05;;;;;;;21.90;7.73;;;10.00;78.20;;;10.11;49.58;95313.56;5071466;28;20447;-61
2024/01/25 10:17:32;;;;;;;17.17;8.60;;;10.10;78.30;;;10.16;49.62;95305.31;5071585;28;20501;-61
2024/01/25 10:20:00;;;;;;;25.57;8.67;;;10.10;78.40;;;10.20;49.60;95309.38;5071569;28;20570;-60
2024/01/25 10:22:28;;;;;;;11.33;5.87;;;10.10;78.40;;;10.25;49.42;95320.31;5071492;28;20970;-61
2024/01/25 10:24:56;;;;;;;15.13;3.37;;;10.20;78.40;;;10.38;49.28;95317.56;5071662;28;20869;-60
2024/01/25 10:27:23;;;;;;;9.57;4.10;;;10.30;78.40;;;10.52;49.32;95325.13;5071283;28;20594;-61
2024/01/25 10:29:51;;;;;;;6.33;2.83;;;10.40;78.40;;;10.64;49.04;95323.25;5071444;28;20474;-62
2024/01/25 10:32:18;;;;;;;7.83;3.13;;;10.50;78.00;;;10.74;49.02;95315.44;5069990;28;20550;-61